createdAt,value
2022-09-07T00:00:54.538Z,0
2022-09-07T00:02:11.642Z,0
2022-09-07T00:03:28.746Z,0
2022-09-07T00:04:45.851Z,0
2022-09-07T00:06:02.955Z,0
2022-09-07T00:07:20.059Z,0
2022-09-07T00:08:37.163Z,0
2022-09-07T00:09:54.267Z,0
2022-09-07T00:11:11.371Z,0
2022-09-07T00:12:28.475Z,0
2022-09-07T00:13:45.580Z,0
2022-09-07T00:15:02.684Z,0
2022-09-07T00:16:18.804Z,0
2022-09-07T00:17:35.908Z,0
2022-09-07T00:18:53.012Z,0
2022-09-07T00:20:10.117Z,0
2022-09-07T00:21:27.221Z,0
2022-09-07T00:22:44.325Z,0
2022-09-07T00:24:01.429Z,0
2022-09-07T00:25:18.534Z,0
2022-09-07T00:26:35.638Z,0
2022-09-07T00:27:52.742Z,0
2022-09-07T00:29:09.846Z,0
2022-09-07T00:30:26.950Z,0
2022-09-07T00:31:44.054Z,0
2022-09-07T00:33:00.175Z,0
2022-09-07T00:34:17.279Z,0
2022-09-07T00:35:34.383Z,0
2022-09-07T00:36:51.488Z,0
2022-09-07T00:38:08.592Z,0
2022-09-07T00:39:25.696Z,0
2022-09-07T00:40:42.800Z,0
2022-09-07T00:41:59.904Z,0
2022-09-07T00:43:17.008Z,0
2022-09-07T00:44:34.113Z,0
2022-09-07T00:45:51.217Z,0
2022-09-07T00:47:08.321Z,0
2022-09-07T00:48:25.425Z,0
2022-09-07T00:49:41.546Z,0
2022-09-07T00:50:58.650Z,0
2022-09-07T00:52:15.754Z,0
2022-09-07T00:53:32.858Z,0
2022-09-07T00:54:49.962Z,0
2022-09-07T00:56:07.067Z,0
2022-09-07T00:57:24.169Z,0
2022-09-07T00:58:41.274Z,0
2022-09-07T00:59:58.378Z,0
2022-09-07T01:01:15.482Z,0
2022-09-07T01:02:32.586Z,0
2022-09-07T01:03:49.690Z,0
2022-09-07T01:05:06.794Z,0
2022-09-07T01:06:22.914Z,0
2022-09-07T01:07:40.018Z,0
2022-09-07T01:08:57.122Z,0
2022-09-07T01:10:14.226Z,0
2022-09-07T01:11:31.331Z,0
2022-09-07T01:12:48.434Z,0
2022-09-07T01:14:05.539Z,0
2022-09-07T01:15:22.643Z,0
2022-09-07T01:16:39.746Z,0
2022-09-07T01:17:56.850Z,0
2022-09-07T01:19:13.954Z,0
2022-09-07T01:20:31.058Z,0
2022-09-07T01:21:48.162Z,0
2022-09-07T01:23:04.282Z,0
2022-09-07T01:24:21.386Z,0
2022-09-07T01:25:38.490Z,0
2022-09-07T01:26:55.594Z,0
2022-09-07T01:28:12.698Z,0
2022-09-07T01:29:29.802Z,0
2022-09-07T01:30:46.906Z,0
2022-09-07T01:32:04.010Z,0
2022-09-07T01:33:21.114Z,0
2022-09-07T01:34:38.218Z,0
2022-09-07T01:35:55.321Z,0
2022-09-07T01:37:12.425Z,0
2022-09-07T01:38:29.529Z,0
2022-09-07T01:39:45.649Z,0
2022-09-07T01:41:02.753Z,0
2022-09-07T01:42:19.857Z,0
2022-09-07T01:43:36.961Z,0
2022-09-07T01:44:54.065Z,0
2022-09-07T01:46:11.169Z,0
2022-09-07T01:47:28.272Z,0
2022-09-07T01:48:45.376Z,0
2022-09-07T01:50:02.480Z,0
2022-09-07T01:51:19.585Z,0
2022-09-07T01:52:36.689Z,0
2022-09-07T01:53:53.794Z,0
2022-09-07T01:55:10.898Z,0
2022-09-07T01:56:27.018Z,0
2022-09-07T01:57:44.123Z,0
2022-09-07T01:59:01.227Z,0
2022-09-07T02:00:18.332Z,0
2022-09-07T02:01:35.436Z,0
2022-09-07T02:02:52.540Z,0
2022-09-07T02:04:09.645Z,0
2022-09-07T02:05:26.749Z,0
2022-09-07T02:06:43.854Z,0
2022-09-07T02:08:00.958Z,0
2022-09-07T02:09:18.062Z,0
2022-09-07T02:10:35.167Z,0
2022-09-07T02:11:52.271Z,0
2022-09-07T02:13:08.391Z,0
2022-09-07T02:14:25.496Z,0
2022-09-07T02:15:42.600Z,0
2022-09-07T02:16:59.705Z,0
2022-09-07T02:18:16.809Z,0
2022-09-07T02:19:33.912Z,0
2022-09-07T02:20:51.016Z,0
2022-09-07T02:22:08.120Z,0
2022-09-07T02:23:25.224Z,0
2022-09-07T02:24:42.328Z,0
2022-09-07T02:25:59.433Z,0
2022-09-07T02:27:16.537Z,0
2022-09-07T02:28:33.641Z,0
2022-09-07T02:29:49.759Z,0
2022-09-07T02:31:06.864Z,0
2022-09-07T02:32:23.968Z,0
2022-09-07T02:33:41.072Z,0
2022-09-07T02:34:58.177Z,0
2022-09-07T02:36:15.281Z,0
2022-09-07T02:37:31.402Z,0
2022-09-07T02:38:48.506Z,0
2022-09-07T02:40:05.611Z,0
2022-09-07T02:41:22.715Z,0
2022-09-07T02:42:39.820Z,0
2022-09-07T02:43:56.924Z,0
2022-09-07T02:45:14.028Z,0
2022-09-07T02:46:31.133Z,0
2022-09-07T02:47:48.237Z,0
2022-09-07T02:49:05.341Z,0
2022-09-07T02:50:22.446Z,0
2022-09-07T02:51:39.550Z,0
2022-09-07T02:52:56.655Z,0
2022-09-07T02:54:12.775Z,0
2022-09-07T02:55:29.879Z,0
2022-09-07T02:56:46.984Z,0
2022-09-07T02:58:04.088Z,0
2022-09-07T02:59:21.192Z,0
2022-09-07T03:00:38.296Z,0
2022-09-07T03:01:55.401Z,0
2022-09-07T03:03:12.505Z,0
2022-09-07T03:04:29.609Z,0
2022-09-07T03:05:46.713Z,0
2022-09-07T03:07:03.818Z,0
2022-09-07T03:08:20.923Z,0
2022-09-07T03:09:38.028Z,0
2022-09-07T03:10:54.148Z,0
2022-09-07T03:12:11.253Z,0
2022-09-07T03:13:28.357Z,0
2022-09-07T03:14:45.462Z,0
2022-09-07T03:16:02.566Z,0
2022-09-07T03:17:19.670Z,0
2022-09-07T03:18:36.774Z,0
2022-09-07T03:19:53.878Z,0
2022-09-07T03:21:10.983Z,0
2022-09-07T03:22:28.087Z,0
2022-09-07T03:23:45.192Z,0
2022-09-07T03:25:02.296Z,0
2022-09-07T03:26:19.400Z,0
2022-09-07T03:27:35.520Z,0
2022-09-07T03:28:52.625Z,0
2022-09-07T03:30:09.729Z,0
2022-09-07T03:31:26.834Z,0
2022-09-07T03:32:43.938Z,0
2022-09-07T03:34:01.042Z,0
2022-09-07T03:35:18.147Z,0
2022-09-07T03:36:35.252Z,0
2022-09-07T03:37:52.356Z,0
2022-09-07T03:39:09.460Z,0
2022-09-07T03:40:26.565Z,0
2022-09-07T03:41:43.669Z,0
2022-09-07T03:43:00.773Z,0
2022-09-07T03:44:16.894Z,0
2022-09-07T03:45:33.998Z,0
2022-09-07T03:46:51.103Z,0
2022-09-07T03:48:08.207Z,0
2022-09-07T03:49:25.312Z,0
2022-09-07T03:50:42.416Z,0
2022-09-07T03:51:59.520Z,0
2022-09-07T03:53:16.625Z,0
2022-09-07T03:54:33.729Z,0
2022-09-07T03:55:50.833Z,0
2022-09-07T03:57:07.938Z,0
2022-09-07T03:58:25.042Z,0
2022-09-07T03:59:42.146Z,0
2022-09-07T04:00:58.266Z,0
2022-09-07T04:02:15.370Z,0
2022-09-07T04:03:32.474Z,0
2022-09-07T04:04:49.578Z,0
2022-09-07T04:06:06.682Z,0
2022-09-07T04:07:23.786Z,0
2022-09-07T04:08:40.891Z,0
2022-09-07T04:09:57.995Z,0
2022-09-07T04:11:15.099Z,0
2022-09-07T04:12:32.203Z,4
2022-09-07T04:13:49.307Z,4
2022-09-07T04:15:06.411Z,4
2022-09-07T04:16:23.515Z,0
2022-09-07T04:17:39.635Z,4
2022-09-07T04:18:56.739Z,4
2022-09-07T04:20:13.843Z,4
2022-09-07T04:21:30.948Z,8
2022-09-07T04:22:48.052Z,8
2022-09-07T04:24:05.156Z,12
2022-09-07T04:25:22.260Z,12
2022-09-07T04:26:39.364Z,16
2022-09-07T04:27:56.468Z,16
2022-09-07T04:29:13.572Z,24
2022-09-07T04:30:30.676Z,28
2022-09-07T04:31:47.780Z,36
2022-09-07T04:33:04.884Z,40
2022-09-07T04:34:21.005Z,48
2022-09-07T04:35:38.108Z,56
2022-09-07T04:36:55.212Z,64
2022-09-07T04:38:12.316Z,76
2022-09-07T04:39:29.420Z,88
2022-09-07T04:40:46.524Z,96
2022-09-07T04:42:03.629Z,108
2022-09-07T04:43:20.733Z,124
2022-09-07T04:44:37.837Z,140
2022-09-07T04:45:54.941Z,144
2022-09-07T04:47:12.045Z,148
2022-09-07T04:48:29.149Z,160
2022-09-07T04:49:46.253Z,180
2022-09-07T04:51:02.374Z,196
2022-09-07T04:52:19.478Z,216
2022-09-07T04:53:36.582Z,236
2022-09-07T04:54:53.686Z,280
2022-09-07T04:56:10.790Z,316
2022-09-07T04:57:27.894Z,372
2022-09-07T04:58:44.998Z,424
2022-09-07T05:00:02.102Z,492
2022-09-07T05:01:19.206Z,572
2022-09-07T05:02:36.310Z,672
2022-09-07T05:03:53.414Z,812
2022-09-07T05:05:10.519Z,940
2022-09-07T05:06:27.623Z,1072
2022-09-07T05:07:43.743Z,1200
2022-09-07T05:09:00.847Z,1336
2022-09-07T05:10:17.951Z,1480
2022-09-07T05:11:35.055Z,1628
2022-09-07T05:12:52.159Z,1804
2022-09-07T05:14:09.263Z,2016
2022-09-07T05:15:26.367Z,2248
2022-09-07T05:16:43.471Z,2472
2022-09-07T05:18:00.575Z,2636
2022-09-07T05:19:17.679Z,2748
2022-09-07T05:20:34.784Z,2828
2022-09-07T05:21:51.889Z,2924
2022-09-07T05:23:08.993Z,2932
2022-09-07T05:24:25.113Z,3028
2022-09-07T05:25:42.217Z,3204
2022-09-07T05:26:59.321Z,3448
2022-09-07T05:28:16.425Z,3928
2022-09-07T05:29:33.529Z,4228
2022-09-07T05:30:50.634Z,4192
2022-09-07T05:32:07.738Z,4252
2022-09-07T05:33:24.842Z,4092
2022-09-07T05:34:41.946Z,4400
2022-09-07T05:35:59.051Z,4848
2022-09-07T05:37:16.155Z,4948
2022-09-07T05:38:33.260Z,5132
2022-09-07T05:39:50.364Z,5792
2022-09-07T05:41:06.485Z,6216
2022-09-07T05:42:23.589Z,8072
2022-09-07T05:43:40.693Z,6576
2022-09-07T05:44:57.798Z,6692
2022-09-07T05:46:14.902Z,6804
2022-09-07T05:47:32.007Z,6396
2022-09-07T05:48:49.111Z,6960
2022-09-07T05:50:06.215Z,7552
2022-09-07T05:51:23.319Z,7616
2022-09-07T05:52:40.421Z,8848
2022-09-07T05:53:57.525Z,12636
2022-09-07T05:55:14.629Z,14144
2022-09-07T05:56:31.732Z,13356
2022-09-07T05:57:47.853Z,10888
2022-09-07T05:59:04.956Z,9060
2022-09-07T06:00:22.061Z,9376
2022-09-07T06:01:39.165Z,12124
2022-09-07T06:02:56.269Z,14464
2022-09-07T06:04:13.372Z,14128
2022-09-07T06:05:30.476Z,15840
2022-09-07T06:06:47.580Z,15936
2022-09-07T06:08:04.685Z,12528
2022-09-07T06:09:21.789Z,23584
2022-09-07T06:10:38.893Z,28864
2022-09-07T06:11:55.997Z,26464
2022-09-07T06:13:13.101Z,29888
2022-09-07T06:14:29.222Z,27648
2022-09-07T06:15:46.325Z,31200
2022-09-07T06:17:03.429Z,23328
2022-09-07T06:18:20.533Z,22816
2022-09-07T06:19:37.637Z,18208
2022-09-07T06:20:54.741Z,18848
2022-09-07T06:22:11.846Z,34848
2022-09-07T06:23:28.950Z,31168
2022-09-07T06:24:46.054Z,31360
2022-09-07T06:26:03.158Z,32672
2022-09-07T06:27:20.262Z,28768
2022-09-07T06:28:37.366Z,24896
2022-09-07T06:29:54.470Z,32736
2022-09-07T06:31:10.590Z,38816
2022-09-07T06:32:27.694Z,40384
2022-09-07T06:33:44.799Z,39520
2022-09-07T06:35:01.903Z,33728
2022-09-07T06:36:19.007Z,36864
2022-09-07T06:37:36.111Z,36128
2022-09-07T06:38:53.215Z,34784
2022-09-07T06:40:10.319Z,36160
2022-09-07T06:41:27.424Z,35808
2022-09-07T06:42:44.528Z,38240
2022-09-07T06:44:01.633Z,39968
2022-09-07T06:45:18.737Z,38432
2022-09-07T06:46:35.841Z,30656
2022-09-07T06:47:51.961Z,31456
2022-09-07T06:49:09.065Z,32320
2022-09-07T06:50:26.170Z,31712
2022-09-07T06:51:43.274Z,40160
2022-09-07T06:53:00.379Z,37312
2022-09-07T06:54:17.483Z,28896
2022-09-07T06:55:33.604Z,20064
2022-09-07T06:56:50.709Z,18080
2022-09-07T06:58:07.813Z,17536
2022-09-07T06:59:24.918Z,17888
2022-09-07T07:00:42.022Z,17600
2022-09-07T07:01:59.126Z,17632
2022-09-07T07:03:16.231Z,18496
2022-09-07T07:04:33.335Z,18784
2022-09-07T07:05:50.440Z,18880
2022-09-07T07:07:07.545Z,19328
2022-09-07T07:08:24.649Z,18400
2022-09-07T07:09:41.754Z,18112
2022-09-07T07:10:58.859Z,17216
2022-09-07T07:13:32.084Z,16832
2022-09-07T07:14:49.189Z,17088
2022-09-07T07:16:06.293Z,16832
2022-09-07T07:17:23.398Z,16512
2022-09-07T07:18:40.503Z,16768
2022-09-07T07:19:57.608Z,16544
2022-09-07T07:21:14.712Z,16480
2022-09-07T07:22:31.817Z,15704
2022-09-07T07:23:48.921Z,16544
2022-09-07T07:25:06.026Z,16608
2022-09-07T07:26:23.131Z,16384
2022-09-07T07:27:40.235Z,16352
2022-09-07T07:28:56.356Z,16352
2022-09-07T07:30:13.461Z,16576
2022-09-07T07:31:30.566Z,16544
2022-09-07T07:32:47.671Z,16288
2022-09-07T07:34:04.775Z,16084
2022-09-07T07:35:21.880Z,16004
2022-09-07T07:36:38.985Z,16448
2022-09-07T07:37:56.090Z,16384
2022-09-07T07:39:13.194Z,16256
2022-09-07T07:40:30.300Z,16192
2022-09-07T07:41:47.406Z,16028
2022-09-07T07:43:04.510Z,16000
2022-09-07T07:44:21.615Z,16088
2022-09-07T07:45:37.736Z,15968
2022-09-07T07:46:54.841Z,15828
2022-09-07T07:48:11.946Z,15916
2022-09-07T07:49:29.050Z,15896
2022-09-07T07:50:46.155Z,15908
2022-09-07T07:52:03.260Z,15856
2022-09-07T07:53:20.365Z,15900
2022-09-07T07:54:37.470Z,16448
2022-09-07T07:55:54.575Z,17376
2022-09-07T07:57:11.679Z,16928
2022-09-07T07:58:28.782Z,15908
2022-09-07T07:59:45.887Z,15768
2022-09-07T08:01:02.992Z,15612
2022-09-07T08:02:19.113Z,15592
2022-09-07T08:03:36.218Z,15576
2022-09-07T08:04:53.323Z,15624
2022-09-07T08:06:10.428Z,15708
2022-09-07T08:07:27.534Z,15720
2022-09-07T08:08:44.639Z,15696
2022-09-07T08:10:01.743Z,15808
2022-09-07T08:11:18.848Z,15916
2022-09-07T08:12:35.953Z,15920
2022-09-07T08:13:53.058Z,16160
2022-09-07T08:15:10.163Z,8332
2022-09-07T08:16:27.268Z,9012
2022-09-07T08:17:44.373Z,16800
2022-09-07T08:19:00.494Z,17216
2022-09-07T08:20:17.599Z,17376
2022-09-07T08:21:34.703Z,17376
2022-09-07T08:22:51.808Z,17280
2022-09-07T08:24:08.913Z,17056
2022-09-07T08:25:26.018Z,17024
2022-09-07T08:26:43.123Z,16992
2022-09-07T08:28:00.227Z,17280
2022-09-07T08:29:17.332Z,17536
2022-09-07T08:30:34.437Z,17024
2022-09-07T08:31:51.542Z,16768
2022-09-07T08:33:08.647Z,16736
2022-09-07T08:34:25.752Z,16640
2022-09-07T08:35:41.873Z,16672
2022-09-07T08:36:58.978Z,16576
2022-09-07T08:38:16.085Z,15912
2022-09-07T08:39:33.190Z,15984
2022-09-07T08:40:50.294Z,16012
2022-09-07T08:42:07.399Z,16544
2022-09-07T08:43:24.505Z,16928
2022-09-07T08:44:41.609Z,16832
2022-09-07T08:45:58.714Z,16448
2022-09-07T08:47:15.820Z,17408
2022-09-07T08:48:32.924Z,17024
2022-09-07T08:49:50.029Z,17056
2022-09-07T08:51:07.134Z,16160
2022-09-07T08:52:23.255Z,18304
2022-09-07T08:53:40.360Z,18592
2022-09-07T08:54:57.466Z,12756
2022-09-07T08:56:14.571Z,18624
2022-09-07T08:57:31.676Z,19712
2022-09-07T08:58:48.781Z,19968
2022-09-07T09:00:05.886Z,19616
2022-09-07T09:01:22.991Z,18624
2022-09-07T09:02:40.096Z,17888
2022-09-07T09:03:57.201Z,17568
2022-09-07T09:05:14.306Z,17504
2022-09-07T09:06:31.411Z,18048
2022-09-07T09:07:48.516Z,18176
2022-09-07T09:09:04.637Z,17568
2022-09-07T09:10:21.742Z,17184
2022-09-07T09:11:38.847Z,17280
2022-09-07T09:12:55.952Z,16864
2022-09-07T09:14:13.057Z,16768
2022-09-07T09:15:30.162Z,16672
2022-09-07T09:16:47.267Z,17248
2022-09-07T09:18:04.372Z,17536
2022-09-07T09:19:21.477Z,18048
2022-09-07T09:20:38.583Z,16544
2022-09-07T09:21:55.688Z,18688
2022-09-07T09:23:12.793Z,17504
2022-09-07T09:24:29.898Z,9604
2022-09-07T09:25:46.019Z,13552
2022-09-07T09:27:03.124Z,16256
2022-09-07T09:28:20.229Z,14328
2022-09-07T09:29:37.334Z,10368
2022-09-07T09:30:54.438Z,12740
2022-09-07T09:32:11.544Z,12220
2022-09-07T09:33:28.650Z,12124
2022-09-07T09:34:45.754Z,8244
2022-09-07T09:36:02.859Z,11280
2022-09-07T09:37:19.964Z,12480
2022-09-07T09:38:37.069Z,15748
2022-09-07T09:39:54.174Z,17664
2022-09-07T09:41:11.279Z,12680
2022-09-07T09:42:27.399Z,15900
2022-09-07T09:43:44.504Z,14184
2022-09-07T09:45:01.609Z,16640
2022-09-07T09:46:18.714Z,16448
2022-09-07T09:47:35.818Z,9996
2022-09-07T09:48:52.923Z,18208
2022-09-07T09:50:10.027Z,12500
2022-09-07T09:51:27.132Z,10724
2022-09-07T09:52:44.237Z,11328
2022-09-07T09:54:01.342Z,10364
2022-09-07T09:55:18.446Z,10612
2022-09-07T09:56:35.551Z,12520
2022-09-07T09:57:52.655Z,11092
2022-09-07T09:59:08.776Z,10804
2022-09-07T10:00:25.880Z,10824
2022-09-07T10:01:42.985Z,10840
2022-09-07T10:03:00.089Z,20352
2022-09-07T10:04:17.193Z,19584
2022-09-07T10:05:34.298Z,19680
2022-09-07T10:06:51.402Z,20480
2022-09-07T10:08:08.507Z,19008
2022-09-07T10:09:25.611Z,18240
2022-09-07T10:10:42.715Z,19552
2022-09-07T10:11:59.820Z,14680
2022-09-07T10:13:16.924Z,18720
2022-09-07T10:14:34.028Z,18304
2022-09-07T10:15:50.149Z,17216
2022-09-07T10:17:07.254Z,18752
2022-09-07T10:18:24.358Z,19808
2022-09-07T10:19:41.462Z,20928
2022-09-07T10:20:58.567Z,17984
2022-09-07T10:22:15.671Z,18112
2022-09-07T10:23:32.775Z,17408
2022-09-07T10:24:49.880Z,17504
2022-09-07T10:26:06.984Z,17536
2022-09-07T10:27:24.089Z,16672
2022-09-07T10:28:41.193Z,17568
2022-09-07T10:29:58.297Z,17216
2022-09-07T10:31:15.402Z,14292
2022-09-07T10:32:31.522Z,11332
2022-09-07T10:33:48.627Z,10712
2022-09-07T10:35:05.731Z,10024
2022-09-07T10:36:22.835Z,9980
2022-09-07T10:37:39.940Z,9944
2022-09-07T10:38:57.044Z,9232
2022-09-07T10:40:14.149Z,9396
2022-09-07T10:41:31.253Z,7692
2022-09-07T10:42:48.358Z,9008
2022-09-07T10:44:05.462Z,9824
2022-09-07T10:45:22.567Z,9092
2022-09-07T10:46:39.671Z,9760
2022-09-07T10:47:56.776Z,7560
2022-09-07T10:49:12.896Z,7680
2022-09-07T10:50:30.001Z,9228
2022-09-07T10:51:47.105Z,9024
2022-09-07T10:53:04.210Z,8120
2022-09-07T10:54:21.314Z,9788
2022-09-07T10:55:38.418Z,10036
2022-09-07T10:56:55.523Z,9688
2022-09-07T10:58:12.627Z,8724
2022-09-07T10:59:29.730Z,9160
2022-09-07T11:00:46.835Z,9420
2022-09-07T11:02:03.939Z,9460
2022-09-07T11:03:21.042Z,10840
2022-09-07T11:04:38.146Z,11452
2022-09-07T11:05:54.267Z,10784
2022-09-07T11:07:11.371Z,9808
2022-09-07T11:08:28.475Z,9544
2022-09-07T11:09:45.579Z,9940
2022-09-07T11:11:02.684Z,9852
2022-09-07T11:12:19.788Z,9672
2022-09-07T11:13:35.908Z,9320
2022-09-07T11:14:53.012Z,9008
2022-09-07T11:16:10.117Z,8660
2022-09-07T11:17:27.222Z,8568
2022-09-07T11:18:44.326Z,8304
2022-09-07T11:20:01.431Z,8396
2022-09-07T11:21:18.536Z,8144
2022-09-07T11:22:35.640Z,7896
2022-09-07T11:23:52.745Z,7992
2022-09-07T11:25:09.850Z,9828
2022-09-07T11:26:26.954Z,8824
2022-09-07T11:27:44.059Z,9496
2022-09-07T11:29:01.163Z,10432
2022-09-07T11:30:17.284Z,10204
2022-09-07T11:31:34.389Z,9884
2022-09-07T11:32:51.493Z,10968
2022-09-07T11:34:08.597Z,10320
2022-09-07T11:35:25.702Z,9888
2022-09-07T11:36:42.806Z,9596
2022-09-07T11:37:59.910Z,8616
2022-09-07T11:39:17.015Z,7684
2022-09-07T11:40:34.119Z,8676
2022-09-07T11:41:51.223Z,9084
2022-09-07T11:43:08.327Z,8860
2022-09-07T11:44:25.432Z,8712
2022-09-07T11:45:42.536Z,8620
2022-09-07T11:46:58.656Z,7692
2022-09-07T11:48:15.761Z,8304
2022-09-07T11:49:32.865Z,8860
2022-09-07T11:50:49.969Z,8752
2022-09-07T11:52:07.073Z,8632
2022-09-07T11:53:24.177Z,8792
2022-09-07T11:54:41.281Z,8688
2022-09-07T11:55:58.385Z,8672
2022-09-07T11:57:15.490Z,8772
2022-09-07T11:58:32.594Z,9020
2022-09-07T11:59:49.698Z,9180
2022-09-07T12:01:06.802Z,9192
2022-09-07T12:02:23.906Z,8852
2022-09-07T12:03:40.026Z,8884
2022-09-07T12:04:57.131Z,9040
2022-09-07T12:06:14.235Z,8880
2022-09-07T12:07:31.339Z,8912
2022-09-07T12:08:48.444Z,8384
2022-09-07T12:10:05.548Z,8252
2022-09-07T12:11:22.653Z,8284
2022-09-07T12:12:39.757Z,9452
2022-09-07T12:13:56.861Z,9244
2022-09-07T12:15:13.965Z,9280
2022-09-07T12:16:31.069Z,9044
2022-09-07T12:17:48.173Z,8556
2022-09-07T12:19:05.277Z,7820
2022-09-07T12:20:21.398Z,8228
2022-09-07T12:21:38.502Z,8204
2022-09-07T12:22:55.606Z,8340
2022-09-07T12:24:12.710Z,8572
2022-09-07T12:25:29.814Z,8688
2022-09-07T12:26:46.918Z,8584
2022-09-07T12:28:04.022Z,8576
2022-09-07T12:29:21.126Z,9296
2022-09-07T12:30:38.231Z,9408
2022-09-07T12:31:55.335Z,9732
2022-09-07T12:33:12.439Z,9596
2022-09-07T12:34:29.543Z,8932
2022-09-07T12:35:46.647Z,8156
2022-09-07T12:37:02.768Z,8496
2022-09-07T12:38:19.872Z,8848
2022-09-07T12:39:36.976Z,9136
2022-09-07T12:40:54.080Z,9044
2022-09-07T12:42:11.184Z,9832
2022-09-07T12:43:28.288Z,9936
2022-09-07T12:44:45.393Z,10440
2022-09-07T12:46:02.497Z,10116
2022-09-07T12:47:19.601Z,10292
2022-09-07T12:48:36.705Z,9136
2022-09-07T12:49:53.809Z,8804
2022-09-07T12:51:10.913Z,8400
2022-09-07T12:52:28.018Z,8000
2022-09-07T12:53:44.138Z,8100
2022-09-07T12:55:01.242Z,8252
2022-09-07T12:56:18.346Z,8420
2022-09-07T12:57:35.451Z,8888
2022-09-07T12:58:52.555Z,8992
2022-09-07T13:00:09.659Z,9320
2022-09-07T13:01:26.763Z,9672
2022-09-07T13:02:43.867Z,10228
2022-09-07T13:04:00.972Z,10452
2022-09-07T13:05:18.076Z,10736
2022-09-07T13:06:35.180Z,11112
2022-09-07T13:07:52.284Z,11192
2022-09-07T13:09:09.388Z,11464
2022-09-07T13:10:25.508Z,11672
2022-09-07T13:11:42.613Z,11520
2022-09-07T13:12:59.717Z,11004
2022-09-07T13:14:16.821Z,10604
2022-09-07T13:15:33.927Z,10400
2022-09-07T13:16:51.031Z,10236
2022-09-07T13:18:08.135Z,10160
2022-09-07T13:19:25.239Z,10128
2022-09-07T13:20:42.344Z,8784
2022-09-07T13:21:59.449Z,8476
2022-09-07T13:23:16.554Z,9428
2022-09-07T13:24:33.658Z,8768
2022-09-07T13:25:50.763Z,9680
2022-09-07T13:27:06.883Z,9456
2022-09-07T13:28:23.987Z,9436
2022-09-07T13:29:41.091Z,9496
2022-09-07T13:30:58.196Z,9732
2022-09-07T13:32:15.300Z,9404
2022-09-07T13:33:32.404Z,9864
2022-09-07T13:34:49.508Z,9824
2022-09-07T13:36:06.612Z,10248
2022-09-07T13:37:23.717Z,9644
2022-09-07T13:38:40.821Z,9884
2022-09-07T13:39:57.926Z,9784
2022-09-07T13:41:15.030Z,8892
2022-09-07T13:42:32.135Z,9688
2022-09-07T13:43:48.255Z,10240
2022-09-07T13:45:05.360Z,10840
2022-09-07T13:46:22.464Z,10260
2022-09-07T13:47:39.569Z,10396
2022-09-07T13:48:56.673Z,10500
2022-09-07T13:50:13.778Z,10684
2022-09-07T13:51:30.882Z,10344
2022-09-07T13:52:47.986Z,10176
2022-09-07T13:54:05.090Z,9740
2022-09-07T13:55:22.194Z,9440
2022-09-07T13:56:39.298Z,8804
2022-09-07T13:57:56.403Z,8180
2022-09-07T13:59:13.507Z,7676
2022-09-07T14:00:29.627Z,7848
2022-09-07T14:01:46.733Z,7760
2022-09-07T14:03:03.837Z,7828
2022-09-07T14:04:20.941Z,8104
2022-09-07T14:05:38.045Z,8472
2022-09-07T14:06:55.149Z,8840
2022-09-07T14:08:12.253Z,9120
2022-09-07T14:09:29.357Z,9324
2022-09-07T14:10:46.462Z,9484
2022-09-07T14:12:03.566Z,9552
2022-09-07T14:13:20.670Z,9508
2022-09-07T14:14:37.774Z,9556
2022-09-07T14:15:54.878Z,9580
2022-09-07T14:17:10.999Z,9400
2022-09-07T14:18:28.103Z,9488
2022-09-07T14:19:45.207Z,9484
2022-09-07T14:21:02.311Z,9444
2022-09-07T14:22:19.415Z,9460
2022-09-07T14:23:36.520Z,9384
2022-09-07T14:24:53.624Z,9324
2022-09-07T14:26:10.728Z,9152
2022-09-07T14:27:27.832Z,9016
2022-09-07T14:28:44.936Z,9580
2022-09-07T14:30:02.040Z,9732
2022-09-07T14:31:19.144Z,10236
2022-09-07T14:32:36.249Z,10076
2022-09-07T14:33:52.369Z,9760
2022-09-07T14:35:09.473Z,9672
2022-09-07T14:36:26.577Z,9612
2022-09-07T14:37:43.681Z,9576
2022-09-07T14:39:00.785Z,9480
2022-09-07T14:40:17.889Z,9252
2022-09-07T14:41:34.993Z,9532
2022-09-07T14:42:52.098Z,9480
2022-09-07T14:44:09.202Z,9284
2022-09-07T14:45:26.306Z,8608
2022-09-07T14:46:43.410Z,8420
2022-09-07T14:48:00.514Z,8244
2022-09-07T14:49:17.618Z,8312
2022-09-07T14:50:33.739Z,8116
2022-09-07T14:51:50.843Z,7852
2022-09-07T14:53:07.947Z,8148
2022-09-07T14:54:25.051Z,8412
2022-09-07T14:55:42.155Z,8724
2022-09-07T14:56:59.260Z,8996
2022-09-07T14:58:16.363Z,9084
2022-09-07T14:59:33.467Z,9260
2022-09-07T15:00:50.571Z,8612
2022-09-07T15:02:07.675Z,8664
2022-09-07T15:03:24.779Z,9140
2022-09-07T15:04:41.883Z,9812
2022-09-07T15:05:58.987Z,9184
2022-09-07T15:07:15.108Z,9236
2022-09-07T15:08:32.212Z,9272
2022-09-07T15:09:49.316Z,9176
2022-09-07T15:11:06.420Z,9428
2022-09-07T15:12:23.524Z,8656
2022-09-07T15:13:40.628Z,8336
2022-09-07T15:14:57.732Z,7928
2022-09-07T15:16:14.836Z,7400
2022-09-07T15:17:31.941Z,6844
2022-09-07T15:18:49.045Z,6312
2022-09-07T15:21:23.254Z,5476
2022-09-07T15:22:40.358Z,5196
2022-09-07T15:23:56.478Z,5088
2022-09-07T15:25:13.582Z,5140
2022-09-07T15:26:30.686Z,5284
2022-09-07T15:27:47.790Z,5460
2022-09-07T15:29:04.895Z,5628
2022-09-07T15:30:21.999Z,5756
2022-09-07T15:31:38.119Z,5860
2022-09-07T15:32:55.223Z,5848
2022-09-07T15:34:12.327Z,5924
2022-09-07T15:35:29.431Z,5904
2022-09-07T15:36:46.535Z,5760
2022-09-07T15:38:03.639Z,5632
2022-09-07T15:39:20.743Z,5504
2022-09-07T15:40:37.848Z,5372
2022-09-07T15:41:54.952Z,5332
2022-09-07T15:43:12.056Z,5352
2022-09-07T15:44:29.160Z,5296
2022-09-07T15:45:46.264Z,5196
2022-09-07T15:47:03.368Z,5448
2022-09-07T15:48:19.488Z,5412
2022-09-07T15:49:36.592Z,5420
2022-09-07T15:50:53.696Z,5416
2022-09-07T15:52:10.801Z,5580
2022-09-07T15:53:27.905Z,5692
2022-09-07T15:54:45.009Z,5656
2022-09-07T15:56:02.113Z,5560
2022-09-07T15:57:19.217Z,5452
2022-09-07T15:58:36.321Z,5300
2022-09-07T15:59:53.425Z,5160
2022-09-07T16:01:10.529Z,5032
2022-09-07T16:02:27.634Z,4852
2022-09-07T16:03:44.738Z,4720
2022-09-07T16:05:00.858Z,4680
2022-09-07T16:06:17.963Z,4716
2022-09-07T16:07:35.067Z,4820
2022-09-07T16:08:52.171Z,4992
2022-09-07T16:10:09.275Z,5132
2022-09-07T16:11:26.379Z,5196
2022-09-07T16:12:43.484Z,5264
2022-09-07T16:14:00.588Z,5296
2022-09-07T16:15:17.692Z,5452
2022-09-07T16:16:34.796Z,5372
2022-09-07T16:17:51.900Z,5180
2022-09-07T16:19:09.004Z,5056
2022-09-07T16:20:26.106Z,4968
2022-09-07T16:21:42.227Z,4932
2022-09-07T16:22:59.331Z,4884
2022-09-07T16:24:16.435Z,4660
2022-09-07T16:25:33.540Z,4584
2022-09-07T16:26:50.644Z,4640
2022-09-07T16:28:07.748Z,4464
2022-09-07T16:29:24.853Z,4492
2022-09-07T16:30:41.957Z,4160
2022-09-07T16:31:59.061Z,3792
2022-09-07T16:33:16.165Z,3552
2022-09-07T16:34:33.269Z,3368
2022-09-07T16:35:50.374Z,3204
2022-09-07T16:37:07.478Z,3048
2022-09-07T16:38:23.598Z,2976
2022-09-07T16:39:40.702Z,2868
2022-09-07T16:40:57.807Z,2820
2022-09-07T16:42:14.911Z,2800
2022-09-07T16:43:32.016Z,2848
2022-09-07T16:44:49.120Z,2940
2022-09-07T16:46:06.224Z,3068
2022-09-07T16:47:23.328Z,3156
2022-09-07T16:48:40.432Z,3256
2022-09-07T16:49:57.536Z,3304
2022-09-07T16:51:14.640Z,3268
2022-09-07T16:52:31.744Z,3192
2022-09-07T16:53:48.848Z,3108
2022-09-07T16:55:04.968Z,2952
2022-09-07T16:56:22.072Z,2832
2022-09-07T16:57:39.175Z,2756
2022-09-07T16:58:56.280Z,2724
2022-09-07T17:00:13.383Z,2784
2022-09-07T17:01:30.487Z,2748
2022-09-07T17:02:47.591Z,2696
2022-09-07T17:04:04.695Z,2640
2022-09-07T17:05:21.799Z,2656
2022-09-07T17:06:38.903Z,2672
2022-09-07T17:07:56.007Z,2588
2022-09-07T17:09:13.111Z,2556
2022-09-07T17:10:30.215Z,2504
2022-09-07T17:11:46.335Z,2400
2022-09-07T17:13:03.440Z,2316
2022-09-07T17:14:20.544Z,2224
2022-09-07T17:15:37.648Z,2148
2022-09-07T17:16:54.752Z,2104
2022-09-07T17:18:11.856Z,2084
2022-09-07T17:19:28.960Z,2068
2022-09-07T17:20:46.064Z,2036
2022-09-07T17:22:03.168Z,1976
2022-09-07T17:23:20.272Z,1892
2022-09-07T17:24:37.376Z,1804
2022-09-07T17:25:54.480Z,1728